Time;durP1;ratioP1;P1;durP2;ratioP2;P2;SDS_P1;SDS_P2;PMS_P1;PMS_P2;Temp;Humidity;BMP_temperature;BMP_pressure;BME280_temperature;BME280_humidity;BME280_pressure;Samples;Min_cycle;Max_cycle;Signal;HPM_P1;HPM_P2
2023/06/05 00:02:07;;;;;;;5.03;3.07;;;16.90;56.90;;;;;;5013569;28;20190;-77
2023/06/05 00:04:35;;;;;;;5.40;2.70;;;16.90;57.00;;;;;;5013356;28;20214;-75
2023/06/05 00:07:02;;;;;;;7.03;3.30;;;16.90;57.20;;;;;;5009060;28;20244;-75
2023/06/05 00:09:27;;;;;;;3.93;3.03;;;16.90;56.90;;;;;;5012468;28;20429;-75
2023/06/05 00:11:53;;;;;;;9.40;3.43;;;16.90;56.90;;;;;;5011397;28;20785;-75
2023/06/05 00:14:18;;;;;;;4.83;2.87;;;16.90;57.00;;;;;;5014042;28;20186;-75
2023/06/05 00:16:44;;;;;;;7.73;3.27;;;16.90;57.20;;;;;;5013559;28;20678;-75
2023/06/05 00:19:10;;;;;;;4.80;2.70;;;16.90;57.20;;;;;;5013043;28;20209;-75
2023/06/05 00:21:36;;;;;;;4.17;2.60;;;16.80;57.40;;;;;;5014001;28;20224;-74
2023/06/05 00:24:01;;;;;;;8.00;3.20;;;16.80;57.60;;;;;;5018358;28;20189;-74
2023/06/05 00:26:27;;;;;;;4.83;3.10;;;16.80;57.60;;;;;;5016150;28;20420;-74
2023/06/05 00:28:53;;;;;;;7.13;2.90;;;16.70;57.70;;;;;;5016905;28;20240;-75
2023/06/05 00:31:18;;;;;;;5.70;2.93;;;16.70;57.80;;;;;;5013631;28;20211;-76
2023/06/05 00:33:44;;;;;;;8.33;3.17;;;16.60;57.80;;;;;;5015676;28;20191;-76
2023/06/05 00:36:11;;;;;;;5.57;2.93;;;16.60;57.70;;;;;;5008638;28;20676;-75
2023/06/05 00:38:36;;;;;;;5.53;2.90;;;16.60;57.80;;;;;;5010990;28;20432;-74
2023/06/05 00:41:02;;;;;;;5.13;3.00;;;16.60;57.70;;;;;;5009145;28;20519;-74
2023/06/05 00:43:28;;;;;;;4.73;2.90;;;16.50;57.80;;;;;;5013307;28;20281;-74
2023/06/05 00:45:59;;;;;;;8.80;3.10;;;16.50;58.00;;;;;;5011919;28;20217;-74
2023/06/05 00:48:25;;;;;;;4.93;3.07;;;16.50;58.10;;;;;;5011892;28;20229;-75
2023/06/05 00:50:51;;;;;;;5.37;3.00;;;16.50;58.10;;;;;;5009142;28;20556;-75
2023/06/05 00:53:16;;;;;;;6.27;3.30;;;16.40;58.10;;;;;;5011912;28;20440;-74
2023/06/05 00:55:42;;;;;;;3.97;2.67;;;16.40;58.10;;;;;;5009892;28;20195;-74
2023/06/05 00:58:09;;;;;;;6.17;2.90;;;16.30;58.10;;;;;;5011844;28;20206;-75
2023/06/05 01:00:36;;;;;;;3.63;2.60;;;16.30;58.40;;;;;;5008838;28;20205;-74
2023/06/05 01:03:02;;;;;;;5.50;3.20;;;16.20;58.70;;;;;;5012104;28;20433;-73
2023/06/05 01:05:28;;;;;;;8.07;2.60;;;16.20;59.10;;;;;;5011374;28;20468;-75
2023/06/05 01:07:54;;;;;;;6.50;3.17;;;16.20;58.80;;;;;;5011050;28;20424;-74
2023/06/05 01:10:20;;;;;;;4.60;2.93;;;16.20;58.70;;;;;;5007774;28;20468;-74
2023/06/05 01:13:08;;;;;;;3.67;2.87;;;16.20;58.80;;;;;;5008239;28;20243;-74
2023/06/05 01:15:37;;;;;;;6.37;3.10;;;16.20;58.90;;;;;;5003939;28;20193;-74
2023/06/05 01:18:04;;;;;;;5.60;3.03;;;16.10;58.90;;;;;;5007658;28;20416;-73
2023/06/05 01:20:34;;;;;;;4.53;2.70;;;16.10;59.20;;;;;;5008431;28;20463;-73
2023/06/05 01:22:59;;;;;;;5.23;3.13;;;16.00;59.60;;;;;;5011519;28;20420;-75
2023/06/05 01:25:25;;;;;;;4.30;2.77;;;16.00;59.70;;;;;;5009665;28;20985;-75
2023/06/05 01:28:06;;;;;;;3.90;2.77;;;15.90;60.60;;;;;;5015307;28;20205;-74
2023/06/05 01:30:46;;;;;;;5.90;3.20;;;15.90;60.60;;;;;;5012778;28;20971;-73
2023/06/05 01:33:17;;;;;;;5.67;3.17;;;15.90;62.00;;;;;;5014312;28;20446;-75
2023/06/05 01:35:45;;;;;;;5.30;3.00;;;15.80;62.80;;;;;;5019571;28;20428;-72
2023/06/05 01:38:11;;;;;;;5.37;3.17;;;15.60;63.50;;;;;;5014865;28;20440;-74
2023/06/05 01:40:37;;;;;;;6.47;3.03;;;15.50;63.90;;;;;;5016355;28;20489;-74
2023/06/05 01:43:07;;;;;;;6.13;2.90;;;15.50;63.90;;;;;;5021457;28;20413;-74
2023/06/05 01:45:37;;;;;;;4.77;2.60;;;15.40;64.20;;;;;;5019675;28;20509;-74
2023/06/05 01:48:03;;;;;;;4.83;2.83;;;15.30;64.50;;;;;;5019750;28;20816;-73
2023/06/05 01:50:33;;;;;;;7.23;2.90;;;15.30;64.40;;;;;;5018004;28;20483;-73
2023/06/05 01:53:00;;;;;;;4.33;3.00;;;15.20;65.00;;;;;;5016783;28;20420;-74
2023/06/05 01:55:26;;;;;;;4.83;2.77;;;15.20;64.50;;;;;;5015107;28;20949;-73
2023/06/05 01:57:52;;;;;;;3.40;2.63;;;15.30;63.50;;;;;;5015200;28;20424;-74
2023/06/05 02:00:18;;;;;;;5.20;2.83;;;15.30;63.50;;;;;;5013379;28;20297;-74
2023/06/05 02:02:45;;;;;;;5.43;2.77;;;15.30;64.40;;;;;;5014726;28;20515;-73
2023/06/05 02:05:15;;;;;;;5.93;3.10;;;15.30;64.50;;;;;;5011808;28;20260;-73
2023/06/05 02:07:43;;;;;;;6.97;3.40;;;15.30;64.80;;;;;;5014520;28;20423;-74
2023/06/05 02:10:09;;;;;;;6.90;2.77;;;15.30;65.30;;;;;;5012834;28;20470;-74
2023/06/05 02:12:37;;;;;;;4.57;3.10;;;15.30;65.10;;;;;;5017066;28;20424;-74
2023/06/05 02:15:03;;;;;;;5.33;3.00;;;15.20;65.60;;;;;;5016769;28;20463;-73
2023/06/05 02:17:29;;;;;;;9.00;3.07;;;15.00;65.80;;;;;;5014762;28;20435;-73
2023/06/05 02:19:55;;;;;;;4.07;2.80;;;14.90;66.10;;;;;;5012007;28;20441;-75
2023/06/05 02:22:23;;;;;;;7.87;3.37;;;15.00;66.00;;;;;;5016730;28;20486;-76
2023/06/05 02:24:49;;;;;;;5.37;3.20;;;14.90;65.70;;;;;;5017085;28;20209;-74
2023/06/05 02:27:16;;;;;;;4.10;2.70;;;14.90;65.30;;;;;;5012559;28;20409;-76
2023/06/05 02:29:41;;;;;;;4.43;2.70;;;15.00;64.40;;;;;;5016356;28;20448;-74
2023/06/05 02:32:07;;;;;;;5.70;3.37;;;15.00;65.10;;;;;;5016979;28;20433;-76
2023/06/05 02:34:32;;;;;;;9.00;3.50;;;15.00;65.80;;;;;;5009461;28;20271;-74
2023/06/05 02:36:59;;;;;;;7.00;3.43;;;14.80;66.30;;;;;;5012618;28;20192;-74
2023/06/05 02:39:25;;;;;;;4.67;2.70;;;14.80;66.70;;;;;;5010343;28;20183;-74
2023/06/05 02:41:51;;;;;;;7.37;3.53;;;14.70;66.90;;;;;;5014080;28;20435;-74
2023/06/05 02:44:17;;;;;;;6.20;3.43;;;14.70;67.00;;;;;;5012359;28;20473;-75
2023/06/05 02:46:42;;;;;;;5.53;3.33;;;14.70;66.90;;;;;;5013474;28;20456;-76
2023/06/05 02:49:08;;;;;;;5.03;3.00;;;14.60;67.30;;;;;;5014582;28;20236;-75
2023/06/05 02:51:33;;;;;;;6.40;3.30;;;14.60;67.30;;;;;;5011004;28;20225;-74
2023/06/05 02:53:59;;;;;;;8.90;3.40;;;14.50;67.20;;;;;;5011432;28;20650;-74
2023/06/05 02:56:26;;;;;;;8.60;3.30;;;14.50;67.50;;;;;;5010290;28;20195;-74
2023/06/05 02:58:53;;;;;;;7.00;3.27;;;14.50;67.20;;;;;;5014926;28;20191;-74
2023/06/05 03:01:18;;;;;;;6.90;3.00;;;14.40;67.30;;;;;;5025560;28;20488;-73
2023/06/05 03:03:44;;;;;;;3.80;2.87;;;14.40;66.90;;;;;;5034830;28;20429;-73
2023/06/05 03:06:11;;;;;;;6.30;3.60;;;14.40;66.30;;;;;;5030561;28;20515;-72
2023/06/05 03:08:37;;;;;;;5.00;3.20;;;14.40;67.00;;;;;;5037535;28;20170;-74
2023/06/05 03:11:04;;;;;;;7.90;3.27;;;14.40;67.50;;;;;;5020195;28;20516;-75
2023/06/05 03:13:30;;;;;;;7.00;3.40;;;14.40;67.90;;;;;;5012006;28;20267;-76
2023/06/05 03:15:57;;;;;;;7.10;3.23;;;14.40;68.00;;;;;;5016446;28;20948;-74
2023/06/05 03:18:24;;;;;;;6.30;3.70;;;14.40;68.00;;;;;;5014573;28;20426;-76
2023/06/05 03:20:54;;;;;;;8.40;3.20;;;14.40;68.00;;;;;;5013569;28;20472;-74
2023/06/05 03:23:29;;;;;;;7.90;3.30;;;14.20;68.30;;;;;;5016921;28;20484;-74
2023/06/05 03:25:55;;;;;;;6.43;3.10;;;14.00;68.90;;;;;;5013427;28;20476;-73
2023/06/05 03:28:22;;;;;;;4.43;3.47;;;13.80;69.50;;;;;;5013159;28;20436;-73
2023/06/05 03:30:48;;;;;;;5.47;3.40;;;13.80;69.90;;;;;;5011258;28;20460;-75
2023/06/05 03:33:15;;;;;;;4.90;2.60;;;13.80;69.80;;;;;;5015717;28;20421;-74
2023/06/05 03:35:42;;;;;;;5.77;3.50;;;13.70;69.80;;;;;;5013648;28;20196;-75
2023/06/05 03:38:09;;;;;;;6.70;3.90;;;13.70;69.70;;;;;;5014500;28;20432;-75
2023/06/05 03:40:35;;;;;;;5.33;3.00;;;13.70;69.70;;;;;;5010102;28;20466;-76
2023/06/05 03:43:00;;;;;;;10.07;3.80;;;13.80;69.50;;;;;;5013063;28;20458;-75
2023/06/05 03:45:27;;;;;;;5.67;2.80;;;13.80;69.10;;;;;;5013029;28;20469;-74
2023/06/05 03:47:54;;;;;;;6.30;3.20;;;13.90;68.90;;;;;;5013671;28;20250;-74
2023/06/05 03:50:20;;;;;;;4.83;3.10;;;14.00;68.50;;;;;;5005707;28;20508;-75
2023/06/05 03:52:52;;;;;;;5.70;3.13;;;14.00;68.20;;;;;;5012778;28;20440;-75
2023/06/05 03:55:19;;;;;;;5.03;3.03;;;14.00;68.30;;;;;;5011547;28;20438;-74
2023/06/05 03:57:47;;;;;;;8.00;3.90;;;14.10;69.10;;;;;;5012223;28;20437;-75
2023/06/05 04:00:14;;;;;;;6.27;3.23;;;14.10;69.20;;;;;;5008710;28;20544;-75
2023/06/05 04:02:40;;;;;;;7.63;3.50;;;14.00;69.50;;;;;;5007347;28;20430;-75
2023/06/05 04:05:06;;;;;;;11.73;3.40;;;13.80;70.10;;;;;;5007139;28;20979;-75
2023/06/05 04:07:32;;;;;;;8.37;3.80;;;13.70;70.70;;;;;;5009105;28;20528;-74
2023/06/05 04:09:57;;;;;;;7.80;3.60;;;13.60;70.80;;;;;;5006322;28;20909;-75
2023/06/05 04:12:23;;;;;;;6.30;3.33;;;13.60;70.70;;;;;;5009262;28;20182;-74
2023/06/05 04:14:48;;;;;;;6.80;3.33;;;13.60;70.70;;;;;;5007292;28;20247;-74
2023/06/05 04:17:14;;;;;;;5.47;2.90;;;13.70;70.40;;;;;;5006256;28;20229;-74
2023/06/05 04:19:40;;;;;;;4.57;2.90;;;13.70;70.20;;;;;;5009894;28;20214;-74
2023/06/05 04:22:06;;;;;;;5.07;3.37;;;13.70;70.20;;;;;;5005334;28;20432;-76
2023/06/05 04:24:32;;;;;;;7.60;2.93;;;13.70;70.40;;;;;;5010656;28;20465;-74
2023/06/05 04:27:00;;;;;;;7.00;3.53;;;13.80;69.80;;;;;;5009952;28;20188;-75
2023/06/05 04:29:26;;;;;;;4.80;3.00;;;13.90;69.50;;;;;;5010175;28;20189;-74
2023/06/05 04:31:52;;;;;;;4.73;3.10;;;14.00;69.70;;;;;;5011360;28;20523;-74
2023/06/05 04:34:19;;;;;;;6.20;3.20;;;14.00;69.70;;;;;;5009925;28;20456;-75
2023/06/05 04:36:45;;;;;;;5.80;3.37;;;14.10;69.70;;;;;;5014639;28;20832;-75
2023/06/05 04:39:14;;;;;;;5.83;3.23;;;14.20;69.50;;;;;;5011448;28;20446;-74
2023/06/05 04:41:46;;;;;;;9.13;3.50;;;14.30;68.90;;;;;;5008324;28;20469;-75
2023/06/05 04:44:18;;;;;;;10.50;3.83;;;14.40;68.90;;;;;;5007534;28;20413;-75
2023/06/05 04:46:45;;;;;;;6.90;3.57;;;14.40;68.80;;;;;;5012590;28;20456;-74
2023/06/05 04:49:16;;;;;;;7.83;3.87;;;14.50;68.80;;;;;;5013867;28;20422;-74
2023/06/05 04:51:43;;;;;;;5.33;3.40;;;14.70;68.60;;;;;;5011361;28;20884;-74
2023/06/05 04:54:10;;;;;;;8.57;4.03;;;14.70;68.60;;;;;;5014620;28;20476;-75
2023/06/05 04:56:37;;;;;;;6.93;3.90;;;14.70;68.50;;;;;;5010812;28;20458;-75
2023/06/05 04:59:03;;;;;;;7.13;3.97;;;14.70;68.60;;;;;;5013362;28;20190;-74
2023/06/05 05:01:29;;;;;;;6.17;3.37;;;14.60;68.80;;;;;;5009774;28;20521;-76
2023/06/05 05:03:55;;;;;;;6.30;3.90;;;14.60;68.80;;;;;;5011175;28;20189;-76
2023/06/05 05:06:21;;;;;;;9.00;4.20;;;14.70;68.80;;;;;;5012364;28;20470;-74
2023/06/05 05:08:50;;;;;;;6.37;3.57;;;14.80;68.60;;;;;;5018931;28;20636;-75
2023/06/05 05:11:17;;;;;;;5.43;3.70;;;14.80;68.80;;;;;;5013307;28;20526;-74
2023/06/05 05:13:43;;;;;;;12.17;4.10;;;14.90;68.20;;;;;;5013859;28;20434;-74
2023/06/05 05:16:10;;;;;;;6.87;3.73;;;15.10;67.90;;;;;;5013513;28;20441;-75
2023/06/05 05:18:39;;;;;;;8.10;3.70;;;15.20;67.70;;;;;;5015868;28;20938;-74
2023/06/05 05:21:05;;;;;;;7.57;4.20;;;15.30;67.70;;;;;;5014059;28;20544;-75
2023/06/05 05:23:31;;;;;;;6.17;3.50;;;15.40;66.60;;;;;;5017607;28;20919;-75
2023/06/05 05:25:57;;;;;;;8.97;4.30;;;15.50;66.70;;;;;;5010628;28;20486;-75
2023/06/05 05:28:22;;;;;;;9.10;3.80;;;15.60;66.40;;;;;;5010148;28;20427;-75
2023/06/05 05:30:48;;;;;;;7.40;4.17;;;15.70;66.10;;;;;;5011345;28;20304;-77
2023/06/05 05:33:14;;;;;;;5.27;3.37;;;15.80;65.00;;;;;;5008091;28;20188;-75
2023/06/05 05:35:40;;;;;;;5.70;3.43;;;15.90;64.10;;;;;;5012816;28;20190;-75
2023/06/05 05:38:06;;;;;;;7.13;3.77;;;16.00;64.10;;;;;;5006540;28;20449;-76
2023/06/05 05:40:32;;;;;;;7.17;3.90;;;16.10;64.20;;;;;;5009819;28;20913;-76
2023/06/05 05:42:57;;;;;;;9.80;4.50;;;16.20;64.20;;;;;;5016552;28;20228;-75
2023/06/05 05:45:23;;;;;;;7.07;3.43;;;16.30;64.10;;;;;;5015209;28;20213;-75
2023/06/05 05:47:48;;;;;;;7.83;3.90;;;16.40;62.90;;;;;;5013986;28;20237;-75
2023/06/05 05:50:14;;;;;;;5.20;3.27;;;16.50;62.00;;;;;;5010981;28;20316;-75
2023/06/05 05:52:42;;;;;;;6.20;3.60;;;16.60;61.60;;;;;;5014161;28;20201;-75
2023/06/05 05:55:08;;;;;;;6.67;3.97;;;16.70;61.50;;;;;;5012100;28;20197;-75
2023/06/05 05:57:34;;;;;;;7.40;4.33;;;16.70;61.20;;;;;;5011480;28;20433;-76
2023/06/05 06:00:00;;;;;;;6.43;3.70;;;16.80;61.50;;;;;;5011208;28;20243;-75
2023/06/05 06:02:25;;;;;;;7.10;3.63;;;16.90;60.90;;;;;;5011627;28;20182;-75
2023/06/05 06:04:51;;;;;;;7.40;4.10;;;17.00;60.40;;;;;;5010964;28;20464;-76
2023/06/05 06:07:17;;;;;;;8.43;3.77;;;17.10;60.60;;;;;;5008039;28;20190;-75
2023/06/05 06:09:44;;;;;;;7.83;3.73;;;17.20;59.90;;;;;;5008831;28;20217;-75
2023/06/05 06:12:10;;;;;;;5.83;3.30;;;17.20;59.60;;;;;;5008041;28;20452;-76
2023/06/05 06:14:36;;;;;;;5.77;3.40;;;17.00;60.10;;;;;;5006838;28;20951;-74
2023/06/05 06:17:02;;;;;;;5.70;3.43;;;17.20;60.30;;;;;;5005862;28;20431;-75
2023/06/05 06:19:28;;;;;;;8.83;4.33;;;17.30;60.00;;;;;;5005313;28;20195;-74
2023/06/05 06:21:54;;;;;;;6.87;3.93;;;17.30;59.30;;;;;;5007898;28;20476;-75
2023/06/05 06:24:21;;;;;;;10.30;4.10;;;17.20;59.90;;;;;;5001565;28;20446;-74
2023/06/05 06:26:48;;;;;;;9.30;3.80;;;17.20;60.00;;;;;;5008914;28;20571;-75
2023/06/05 06:29:25;;;;;;;7.13;3.77;;;17.30;60.30;;;;;;5003049;28;20544;-73
2023/06/05 06:31:50;;;;;;;8.87;3.67;;;17.50;59.70;;;;;;5010557;28;20431;-74
2023/06/05 06:34:16;;;;;;;9.47;4.10;;;17.60;59.50;;;;;;5009578;28;20500;-74
2023/06/05 06:36:43;;;;;;;7.53;4.10;;;17.60;59.30;;;;;;5007236;28;20588;-74
2023/06/05 06:39:10;;;;;;;7.40;4.13;;;17.70;59.20;;;;;;5005280;28;20641;-74
2023/06/05 06:41:37;;;;;;;7.93;4.33;;;17.80;59.30;;;;;;5013496;28;20689;-74
2023/06/05 06:44:03;;;;;;;7.03;3.70;;;17.90;58.50;;;;;;5014166;28;20975;-73
2023/06/05 06:46:30;;;;;;;6.77;3.90;;;17.90;57.60;;;;;;5014520;28;20426;-74
2023/06/05 06:48:56;;;;;;;8.40;4.60;;;18.00;57.40;;;;;;5013987;28;20426;-75
2023/06/05 06:51:24;;;;;;;13.07;4.33;;;17.90;57.20;;;;;;5013152;28;20494;-74
2023/06/05 06:53:50;;;;;;;7.83;4.27;;;18.00;56.10;;;;;;5014451;28;20600;-75
2023/06/05 06:56:17;;;;;;;7.03;4.30;;;17.80;57.60;;;;;;5013833;28;20548;-74
2023/06/05 06:58:43;;;;;;;10.77;4.60;;;17.90;57.00;;;;;;5014076;28;20528;-74
2023/06/05 07:01:11;;;;;;;9.13;5.00;;;18.00;56.40;;;;;;5009880;28;21030;-74
2023/06/05 07:03:38;;;;;;;9.60;3.70;;;18.10;56.10;;;;;;5007617;28;20501;-73
2023/06/05 07:06:03;;;;;;;7.90;4.30;;;18.20;56.40;;;;;;5007991;28;21033;-73
2023/06/05 07:08:29;;;;;;;9.93;4.40;;;18.30;56.10;;;;;;5008963;28;20430;-74
2023/06/05 07:10:55;;;;;;;14.70;4.63;;;18.40;55.60;;;;;;5008640;28;20231;-73
2023/06/05 07:13:21;;;;;;;9.60;4.60;;;18.30;55.20;;;;;;5009354;28;20187;-74
2023/06/05 07:15:47;;;;;;;8.07;4.43;;;18.10;56.20;;;;;;5006453;28;20545;-74
2023/06/05 07:18:13;;;;;;;6.30;3.70;;;18.20;56.80;;;;;;5012865;28;20201;-73
2023/06/05 07:20:38;;;;;;;12.23;5.20;;;18.40;56.40;;;;;;5009081;28;20508;-73
2023/06/05 07:23:04;;;;;;;8.97;4.90;;;18.50;56.40;;;;;;5012761;28;20182;-73
2023/06/05 07:25:29;;;;;;;6.97;4.43;;;18.70;56.40;;;;;;5012527;28;20668;-72
2023/06/05 07:27:55;;;;;;;9.50;4.70;;;18.70;56.40;;;;;;5013590;28;20626;-73
2023/06/05 07:30:21;;;;;;;11.67;4.70;;;18.70;56.60;;;;;;5011971;28;20229;-73
2023/06/05 07:32:47;;;;;;;9.07;4.67;;;18.80;57.00;;;;;;5016231;28;20192;-72
2023/06/05 07:35:14;;;;;;;8.03;4.60;;;18.80;56.50;;;;;;5011808;28;20438;-74
2023/06/05 07:37:40;;;;;;;7.73;4.50;;;18.80;56.80;;;;;;5013140;28;20195;-73
2023/06/05 07:40:06;;;;;;;7.13;4.53;;;18.90;56.80;;;;;;5009183;28;20518;-75
2023/06/05 07:42:31;;;;;;;11.00;4.23;;;19.00;57.20;;;;;;5009976;28;20182;-74
2023/06/05 07:44:57;;;;;;;12.90;5.10;;;19.00;56.40;;;;;;5011926;28;20461;-72
2023/06/05 07:47:23;;;;;;;9.77;4.80;;;19.00;57.00;;;;;;5009243;28;20190;-72
2023/06/05 07:49:59;;;;;;;7.60;4.53;;;19.00;56.80;;;;;;5007791;28;20210;-75
2023/06/05 07:52:25;;;;;;;8.97;5.03;;;19.20;56.80;;;;;;5010821;28;20680;-73
2023/06/05 07:54:50;;;;;;;7.60;5.20;;;19.30;57.00;;;;;;5007989;28;20436;-76
2023/06/05 07:57:17;;;;;;;7.50;5.07;;;19.40;57.20;;;;;;5008252;28;20426;-74
2023/06/05 07:59:43;;;;;;;8.97;5.17;;;19.50;56.40;;;;;;5004117;28;20225;-75
2023/06/05 08:02:08;;;;;;;7.50;4.87;;;19.60;56.80;;;;;;5009371;28;20789;-74
2023/06/05 08:04:35;;;;;;;9.40;5.83;;;19.70;56.90;;;;;;5012328;28;20217;-74
2023/06/05 08:07:01;;;;;;;7.40;5.00;;;19.90;57.20;;;;;;5012226;28;20591;-74
2023/06/05 08:09:26;;;;;;;11.83;6.40;;;20.00;56.90;;;;;;5011151;28;20464;-74
2023/06/05 08:11:52;;;;;;;11.43;6.00;;;20.10;56.50;;;;;;5010837;28;20826;-74
2023/06/05 08:14:18;;;;;;;10.17;6.40;;;20.10;56.80;;;;;;5012880;28;20278;-74
2023/06/05 08:16:43;;;;;;;12.00;6.23;;;20.10;56.40;;;;;;5005085;28;20188;-75
2023/06/05 08:19:09;;;;;;;11.40;5.47;;;19.80;57.40;;;;;;5010271;28;20179;-75
2023/06/05 08:21:36;;;;;;;11.30;6.10;;;20.00;57.60;;;;;;5009264;28;20214;-75
2023/06/05 08:24:02;;;;;;;12.47;6.33;;;19.90;57.70;;;;;;5012559;28;20680;-75
2023/06/05 08:26:28;;;;;;;9.00;6.10;;;19.80;58.00;;;;;;5011109;28;21002;-76
2023/06/05 08:28:54;;;;;;;10.73;5.90;;;19.60;58.90;;;;;;5012735;28;20449;-75
2023/06/05 08:31:20;;;;;;;11.17;6.13;;;19.70;59.10;;;;;;5010319;28;20203;-75
2023/06/05 08:33:45;;;;;;;13.30;5.87;;;19.90;58.80;;;;;;5012451;28;20179;-75
2023/06/05 08:36:11;;;;;;;11.13;6.20;;;20.20;58.80;;;;;;5013133;28;20474;-74
2023/06/05 08:38:37;;;;;;;12.80;6.80;;;20.40;58.80;;;;;;5012757;28;20561;-76
2023/06/05 08:41:05;;;;;;;10.30;6.07;;;20.70;58.70;;;;;;5010279;28;20230;-77
2023/06/05 08:43:31;;;;;;;8.30;5.67;;;20.90;58.00;;;;;;5013458;28;20199;-74
2023/06/05 08:45:57;;;;;;;12.57;6.40;;;21.00;57.80;;;;;;5012310;28;20964;-75
2023/06/05 08:48:25;;;;;;;8.60;7.00;;;21.10;57.70;;;;;;5013904;28;20955;-75
2023/06/05 08:50:51;;;;;;;10.70;7.33;;;21.10;57.20;;;;;;5011034;28;20474;-75
2023/06/05 08:53:17;;;;;;;10.33;6.30;;;21.00;57.40;;;;;;5013586;28;20433;-73
2023/06/05 08:55:47;;;;;;;10.40;6.20;;;21.00;58.20;;;;;;5009076;28;21019;-76
2023/06/05 08:58:14;;;;;;;12.53;6.70;;;21.20;58.70;;;;;;5013660;28;20976;-75
2023/06/05 09:00:40;;;;;;;10.87;7.37;;;21.40;58.50;;;;;;5011868;28;20973;-75
2023/06/05 09:03:06;;;;;;;8.67;6.40;;;21.40;58.50;;;;;;5013865;28;20429;-76
2023/06/05 09:05:32;;;;;;;12.97;6.93;;;21.30;59.20;;;;;;5014219;28;20467;-75
2023/06/05 09:07:58;;;;;;;11.80;6.20;;;21.50;58.40;;;;;;5015031;28;20260;-75
2023/06/05 09:10:26;;;;;;;11.20;6.83;;;21.70;58.10;;;;;;5011779;28;20219;-74
2023/06/05 09:13:01;;;;;;;10.70;7.47;;;21.70;58.10;;;;;;5012815;28;20432;-75
2023/06/05 09:15:28;;;;;;;12.80;7.40;;;21.80;58.40;;;;;;5006285;28;20473;-74
2023/06/05 09:18:09;;;;;;;10.43;7.30;;;21.90;58.10;;;;;;5011477;28;20470;-74
2023/06/05 09:20:39;;;;;;;11.40;6.77;;;22.00;58.10;;;;;;5008988;28;20464;-75
2023/06/05 09:23:26;;;;;;;9.73;6.70;;;22.10;57.40;;;;;;5008051;28;20766;-74
2023/06/05 09:25:52;;;;;;;12.07;7.17;;;21.90;56.80;;;;;;5005037;28;20565;-74
2023/06/05 09:28:18;;;;;;;8.60;5.93;;;21.50;57.70;;;;;;5006638;28;20420;-74
2023/06/05 09:30:57;;;;;;;12.10;5.87;;;21.80;57.80;;;;;;5004948;28;20727;-74
2023/06/05 09:33:23;;;;;;;14.07;6.80;;;22.00;57.40;;;;;;5007005;28;20863;-74
2023/06/05 09:36:12;;;;;;;12.70;7.00;;;22.10;57.00;;;;;;5002416;28;20421;-74
2023/06/05 09:38:40;;;;;;;13.93;6.97;;;22.30;56.80;;;;;;5002673;28;20425;-74
2023/06/05 09:41:07;;;;;;;9.20;6.90;;;22.50;56.40;;;;;;5005612;28;20472;-74
2023/06/05 09:43:33;;;;;;;13.43;7.20;;;22.40;56.10;;;;;;5006102;28;20546;-73
2023/06/05 09:46:05;;;;;;;10.37;7.13;;;22.30;56.40;;;;;;5004714;28;20469;-74
2023/06/05 09:48:32;;;;;;;11.80;7.00;;;22.10;57.20;;;;;;5009775;28;20432;-74
2023/06/05 09:51:09;;;;;;;8.20;6.37;;;22.20;57.30;;;;;;5002722;28;20481;-74
2023/06/05 09:53:40;;;;;;;10.13;5.80;;;22.30;57.40;;;;;;5006517;28;20425;-74
2023/06/05 09:56:07;;;;;;;9.63;6.97;;;22.50;57.30;;;;;;5003729;28;20436;-74
2023/06/05 09:58:33;;;;;;;11.60;7.30;;;22.70;56.80;;;;;;5002340;28;21027;-73
2023/06/05 10:01:00;;;;;;;10.20;6.63;;;22.30;57.20;;;;;;5006472;28;20534;-75
2023/06/05 10:03:28;;;;;;;12.50;7.20;;;22.30;57.60;;;;;;5010374;28;21171;-74
2023/06/05 10:05:55;;;;;;;12.90;6.90;;;22.50;57.30;;;;;;5008594;28;20824;-74
2023/06/05 10:08:21;;;;;;;12.20;6.73;;;22.80;55.40;;;;;;5008577;28;20445;-73
2023/06/05 10:10:47;;;;;;;8.57;6.43;;;23.10;54.50;;;;;;5007799;28;20463;-74
2023/06/05 10:13:14;;;;;;;11.57;6.53;;;23.30;54.00;;;;;;5012507;28;20431;-77
2023/06/05 10:15:42;;;;;;;9.63;6.93;;;23.40;53.20;;;;;;5013742;28;20531;-74
2023/06/05 10:18:09;;;;;;;9.40;6.87;;;23.80;51.60;;;;;;5010922;28;20426;-74
2023/06/05 10:20:36;;;;;;;13.20;6.23;;;23.60;51.60;;;;;;5009287;28;20491;-75
2023/06/05 10:23:03;;;;;;;12.03;6.77;;;23.90;51.20;;;;;;5011957;28;20557;-74
2023/06/05 10:25:30;;;;;;;8.53;6.30;;;23.30;51.20;;;;;;5009567;28;20477;-75
2023/06/05 10:28:19;;;;;;;8.13;6.60;;;23.50;50.90;;;;;;5010553;28;20424;-74
2023/06/05 10:31:04;;;;;;;8.43;5.83;;;23.60;50.20;;;;;;4996711;28;20834;-75
2023/06/05 10:33:54;;;;;;;7.50;5.90;;;24.30;48.20;;;;;;5007455;28;20480;-74
2023/06/05 10:36:56;;;;;;;9.13;5.60;;;24.80;45.70;;;;;;5012885;28;20517;-73
2023/06/05 10:39:25;;;;;;;7.93;5.80;;;25.20;44.30;;;;;;5012374;28;20635;-73
2023/06/05 10:41:51;;;;;;;8.80;6.00;;;25.70;43.10;;;;;;5013184;28;20441;-74
2023/06/05 10:44:17;;;;;;;8.17;5.50;;;25.60;42.30;;;;;;5015849;28;20479;-73
2023/06/05 10:46:42;;;;;;;7.97;5.40;;;25.60;42.00;;;;;;5011613;28;20218;-75
2023/06/05 10:49:13;;;;;;;9.00;5.57;;;25.50;41.90;;;;;;5012986;28;20184;-75
2023/06/05 10:51:53;;;;;;;8.87;5.33;;;25.40;41.20;;;;;;5011823;28;20223;-73
2023/06/05 10:54:21;;;;;;;11.33;5.13;;;25.20;41.80;;;;;;5015408;28;20419;-74
2023/06/05 10:57:02;;;;;;;7.47;4.97;;;25.30;41.80;;;;;;5013870;28;20431;-74
2023/06/05 10:59:31;;;;;;;7.27;4.70;;;25.70;40.80;;;;;;5013296;28;20427;-75
2023/06/05 11:02:09;;;;;;;7.17;5.37;;;25.30;40.70;;;;;;5010595;28;20450;-74
2023/06/05 11:04:46;;;;;;;8.33;5.50;;;25.00;41.10;;;;;;5009964;28;20853;-74
2023/06/05 11:07:22;;;;;;;8.07;4.53;;;25.00;40.80;;;;;;5006238;28;20418;-73
2023/06/05 11:10:05;;;;;;;8.27;5.93;;;24.80;42.20;;;;;;5007991;28;20519;-74
2023/06/05 11:12:43;;;;;;;7.70;4.87;;;24.80;41.40;;;;;;5007674;28;20980;-75
2023/06/05 11:15:14;;;;;;;9.00;5.37;;;24.40;42.00;;;;;;5007344;28;20511;-74
2023/06/05 11:17:45;;;;;;;8.90;4.83;;;24.70;41.20;;;;;;5005575;28;20918;-73
2023/06/05 11:20:28;;;;;;;8.47;5.40;;;24.70;40.70;;;;;;5005307;28;20457;-73
2023/06/05 11:22:57;;;;;;;8.47;5.37;;;24.60;41.80;;;;;;5005676;28;20463;-74
2023/06/05 11:25:24;;;;;;;11.00;5.00;;;25.30;40.70;;;;;;5011341;28;20478;-74
2023/06/05 11:27:52;;;;;;;21.63;4.93;;;25.80;39.20;;;;;;5005610;28;20433;-73
2023/06/05 11:30:20;;;;;;;7.57;4.80;;;26.10;38.20;;;;;;5009592;28;20572;-74
2023/06/05 11:32:46;;;;;;;8.80;4.53;;;26.40;37.90;;;;;;5008332;28;20420;-73
2023/06/05 11:35:12;;;;;;;8.90;5.10;;;26.80;37.40;;;;;;5010929;28;20912;-74
2023/06/05 11:37:39;;;;;;;6.77;4.70;;;27.40;36.70;;;;;;5012700;28;20444;-74
2023/06/05 11:40:09;;;;;;;10.30;4.90;;;27.80;34.40;;;;;;5008861;28;20218;-74
2023/06/05 11:42:39;;;;;;;8.70;5.60;;;27.40;36.00;;;;;;5011476;28;20440;-73
2023/06/05 11:45:14;;;;;;;6.10;4.37;;;27.30;35.50;;;;;;5012565;28;20490;-75
2023/06/05 11:47:40;;;;;;;7.33;5.40;;;27.40;35.20;;;;;;5014324;28;20461;-75
2023/06/05 11:50:13;;;;;;;6.83;5.00;;;26.50;36.80;;;;;;5009588;28;20455;-74
2023/06/05 11:52:39;;;;;;;6.33;4.50;;;25.80;37.90;;;;;;5012116;28;20454;-74
2023/06/05 11:55:19;;;;;;;6.37;4.77;;;26.20;37.60;;;;;;5011546;28;21009;-74
2023/06/05 11:57:52;;;;;;;7.50;4.90;;;26.40;36.80;;;;;;5010587;28;20461;-73
2023/06/05 12:00:23;;;;;;;6.10;4.80;;;26.60;37.00;;;;;;5006028;28;20493;-75
2023/06/05 12:02:49;;;;;;;7.50;5.20;;;27.10;36.40;;;;;;5006387;28;20780;-75
2023/06/05 12:05:15;;;;;;;6.93;5.30;;;27.40;35.30;;;;;;5005960;28;20469;-73
2023/06/05 12:07:41;;;;;;;8.37;5.30;;;27.50;34.40;;;;;;5007208;28;20190;-73
2023/06/05 12:10:08;;;;;;;8.70;4.70;;;26.60;35.50;;;;;;5004814;28;20530;-74
2023/06/05 12:12:35;;;;;;;8.00;5.27;;;26.90;36.00;;;;;;5003994;28;20197;-74
2023/06/05 12:15:17;;;;;;;8.17;5.00;;;27.00;35.20;;;;;;5003044;28;20438;-75
2023/06/05 12:17:53;;;;;;;9.33;5.30;;;27.30;34.80;;;;;;5006347;28;20437;-73
2023/06/05 12:20:20;;;;;;;6.70;4.77;;;27.30;34.50;;;;;;5001860;28;20460;-73
2023/06/05 12:22:46;;;;;;;8.50;6.10;;;27.20;34.50;;;;;;5007768;28;20968;-74
2023/06/05 12:25:16;;;;;;;11.40;5.27;;;26.50;35.20;;;;;;5006807;28;20502;-75
2023/06/05 12:27:42;;;;;;;10.27;5.87;;;26.30;36.00;;;;;;5009615;28;20440;-74
2023/06/05 12:30:09;;;;;;;7.70;5.40;;;26.20;36.00;;;;;;5013238;28;20456;-74
2023/06/05 12:32:34;;;;;;;8.50;5.27;;;26.00;36.20;;;;;;5016052;28;20189;-75
2023/06/05 12:35:00;;;;;;;14.30;6.53;;;25.60;37.00;;;;;;5013993;28;20440;-74
2023/06/05 12:37:31;;;;;;;7.43;5.27;;;25.80;36.20;;;;;;5006640;28;20186;-74
2023/06/05 12:40:01;;;;;;;8.23;5.30;;;26.40;36.00;;;;;;5007492;28;20221;-75
2023/06/05 12:42:28;;;;;;;8.17;5.60;;;26.90;34.50;;;;;;5010474;28;20444;-74
2023/06/05 12:44:54;;;;;;;8.63;5.67;;;27.60;33.60;;;;;;5010859;28;20462;-74
2023/06/05 12:47:20;;;;;;;8.33;5.03;;;26.00;34.90;;;;;;5008061;28;20443;-76
2023/06/05 12:49:46;;;;;;;8.17;5.27;;;25.30;37.00;;;;;;5007665;28;20521;-74